sensor_id;sensor_type;location;lat;lon;timestamp;pressure;altitude;pressure_sealevel;temperature;humidity
68871;BME280;55906;52.278;6.808;2023-05-20T00:00:27;102305.19;;;14.30;56.65
68871;BME280;55906;52.278;6.808;2023-05-20T00:02:54;102316.44;;;14.23;57.14
68871;BME280;55906;52.278;6.808;2023-05-20T00:05:22;102306.91;;;14.28;57.00
68871;BME280;55906;52.278;6.808;2023-05-20T00:07:48;102310.59;;;14.31;56.93
68871;BME280;55906;52.278;6.808;2023-05-20T00:10:15;102307.75;;;14.27;57.14
68871;BME280;55906;52.278;6.808;2023-05-20T00:12:43;102309.22;;;14.19;57.85
68871;BME280;55906;52.278;6.808;2023-05-20T00:15:10;102312.94;;;14.24;57.65
68871;BME280;55906;52.278;6.808;2023-05-20T00:17:37;102314.72;;;14.25;58.33
68871;BME280;55906;52.278;6.808;2023-05-20T00:20:05;102320.19;;;14.29;57.65
68871;BME280;55906;52.278;6.808;2023-05-20T00:22:32;102314.19;;;14.33;56.96
68871;BME280;55906;52.278;6.808;2023-05-20T00:24:59;102314.22;;;14.35;57.13
68871;BME280;55906;52.278;6.808;2023-05-20T00:27:25;102310.69;;;14.34;57.33
68871;BME280;55906;52.278;6.808;2023-05-20T00:29:53;102307.94;;;14.31;57.70
68871;BME280;55906;52.278;6.808;2023-05-20T00:32:20;102309.72;;;14.32;57.72
68871;BME280;55906;52.278;6.808;2023-05-20T00:34:54;102307.19;;;14.35;58.28
68871;BME280;55906;52.278;6.808;2023-05-20T00:37:21;102309.53;;;14.28;57.79
68871;BME280;55906;52.278;6.808;2023-05-20T00:39:48;102304.19;;;14.26;58.07
68871;BME280;55906;52.278;6.808;2023-05-20T00:42:19;102300.88;;;14.32;58.10
68871;BME280;55906;52.278;6.808;2023-05-20T00:44:45;102304.38;;;14.31;57.86
68871;BME280;55906;52.278;6.808;2023-05-20T00:47:13;102296.50;;;14.32;57.72
68871;BME280;55906;52.278;6.808;2023-05-20T00:49:40;102307.19;;;14.35;57.76
68871;BME280;55906;52.278;6.808;2023-05-20T00:52:07;102301.56;;;14.26;58.38
68871;BME280;55906;52.278;6.808;2023-05-20T00:54:34;102299.09;;;14.31;59.80
68871;BME280;55906;52.278;6.808;2023-05-20T00:57:02;102301.09;;;14.38;57.94
68871;BME280;55906;52.278;6.808;2023-05-20T00:59:28;102304.59;;;14.37;58.05
68871;BME280;55906;52.278;6.808;2023-05-20T01:01:56;102296.66;;;14.37;57.93
68871;BME280;55906;52.278;6.808;2023-05-20T01:04:24;102299.28;;;14.37;58.24
68871;BME280;55906;52.278;6.808;2023-05-20T01:06:51;102295.81;;;14.38;57.93
68871;BME280;55906;52.278;6.808;2023-05-20T01:09:18;102292.31;;;14.39;58.21
68871;BME280;55906;52.278;6.808;2023-05-20T01:11:48;102298.41;;;14.36;58.54
68871;BME280;55906;52.278;6.808;2023-05-20T01:14:17;102297.66;;;14.40;57.89
68871;BME280;55906;52.278;6.808;2023-05-20T01:16:47;102292.94;;;14.32;59.64
68871;BME280;55906;52.278;6.808;2023-05-20T01:19:21;102288.59;;;14.34;59.15
68871;BME280;55906;52.278;6.808;2023-05-20T01:21:56;102296.59;;;14.35;58.72
68871;BME280;55906;52.278;6.808;2023-05-20T01:24:24;102294.00;;;14.37;58.25
68871;BME280;55906;52.278;6.808;2023-05-20T01:26:51;102292.31;;;14.39;58.43
68871;BME280;55906;52.278;6.808;2023-05-20T01:29:18;102293.16;;;14.38;58.39
68871;BME280;55906;52.278;6.808;2023-05-20T01:31:46;102294.91;;;14.37;58.36
68871;BME280;55906;52.278;6.808;2023-05-20T01:34:14;102294.00;;;14.37;58.64
68871;BME280;55906;52.278;6.808;2023-05-20T01:36:41;102294.00;;;14.37;58.66
68871;BME280;55906;52.278;6.808;2023-05-20T01:39:11;102292.25;;;14.37;58.62
68871;BME280;55906;52.278;6.808;2023-05-20T01:41:40;102293.91;;;14.34;59.13
68871;BME280;55906;52.278;6.808;2023-05-20T01:44:07;102294.75;;;14.33;59.01
68871;BME280;55906;52.278;6.808;2023-05-20T01:46:34;102288.22;;;14.23;59.62
68871;BME280;55906;52.278;6.808;2023-05-20T01:49:00;102290.16;;;14.29;58.68
68871;BME280;55906;52.278;6.808;2023-05-20T01:51:27;102284.66;;;14.23;58.89
68871;BME280;55906;52.278;6.808;2023-05-20T01:53:55;102282.91;;;14.23;58.88
68871;BME280;55906;52.278;6.808;2023-05-20T01:56:21;102283.72;;;14.21;58.95
68871;BME280;55906;52.278;6.808;2023-05-20T01:58:49;102278.22;;;14.15;59.33
68871;BME280;55906;52.278;6.808;2023-05-20T02:01:16;102278.91;;;14.09;59.23
68871;BME280;55906;52.278;6.808;2023-05-20T02:03:42;102282.25;;;14.03;59.25
68871;BME280;55906;52.278;6.808;2023-05-20T02:06:09;102282.88;;;13.96;59.66
68871;BME280;55906;52.278;6.808;2023-05-20T02:08:36;102272.88;;;13.88;59.75
68871;BME280;55906;52.278;6.808;2023-05-20T02:11:03;102276.09;;;13.79;60.13
68871;BME280;55906;52.278;6.808;2023-05-20T02:13:30;102268.78;;;13.72;60.17
68871;BME280;55906;52.278;6.808;2023-05-20T02:15:58;102263.28;;;13.66;60.42
68871;BME280;55906;52.278;6.808;2023-05-20T02:18:24;102267.44;;;13.59;60.47
68871;BME280;55906;52.278;6.808;2023-05-20T02:20:51;102271.72;;;13.56;60.28
68871;BME280;55906;52.278;6.808;2023-05-20T02:23:18;102266.00;;;13.43;60.91
68871;BME280;55906;52.278;6.808;2023-05-20T02:25:45;102265.84;;;13.39;61.12
68871;BME280;55906;52.278;6.808;2023-05-20T02:28:11;102271.91;;;13.36;61.07
68871;BME280;55906;52.278;6.808;2023-05-20T02:30:40;102271.78;;;13.33;61.30
68871;BME280;55906;52.278;6.808;2023-05-20T02:33:08;102272.53;;;13.29;60.92
68871;BME280;55906;52.278;6.808;2023-05-20T02:35:35;102269.59;;;13.22;61.81
68871;BME280;55906;52.278;6.808;2023-05-20T02:38:01;102267.69;;;13.18;61.73
68871;BME280;55906;52.278;6.808;2023-05-20T02:40:28;102279.78;;;13.12;61.86
68871;BME280;55906;52.278;6.808;2023-05-20T02:42:54;102273.53;;;13.10;61.70
68871;BME280;55906;52.278;6.808;2023-05-20T02:45:21;102270.66;;;13.04;61.58
68871;BME280;55906;52.278;6.808;2023-05-20T02:47:48;102263.31;;;12.97;62.20
68871;BME280;55906;52.278;6.808;2023-05-20T02:50:16;102265.88;;;12.96;62.55
68871;BME280;55906;52.278;6.808;2023-05-20T02:52:43;102256.88;;;12.91;61.90
68871;BME280;55906;52.278;6.808;2023-05-20T02:55:10;102259.47;;;12.89;61.99
68871;BME280;55906;52.278;6.808;2023-05-20T02:57:36;102260.19;;;12.85;62.77
68871;BME280;55906;52.278;6.808;2023-05-20T03:00:04;102256.53;;;12.81;62.70
68871;BME280;55906;52.278;6.808;2023-05-20T03:02:32;102257.25;;;12.77;62.88
68871;BME280;55906;52.278;6.808;2023-05-20T03:04:59;102263.38;;;12.76;62.62
68871;BME280;55906;52.278;6.808;2023-05-20T03:07:28;102266.72;;;12.72;62.90
68871;BME280;55906;52.278;6.808;2023-05-20T03:09:54;102264.75;;;12.67;62.88
68871;BME280;55906;52.278;6.808;2023-05-20T03:12:23;102266.38;;;12.63;63.77
68871;BME280;55906;52.278;6.808;2023-05-20T03:14:50;102262.66;;;12.58;63.95
68871;BME280;55906;52.278;6.808;2023-05-20T03:17:19;102271.41;;;12.57;63.69
68871;BME280;55906;52.278;6.808;2023-05-20T03:19:46;102279.31;;;12.57;63.30
68871;BME280;55906;52.278;6.808;2023-05-20T03:22:12;102274.75;;;12.53;63.39
68871;BME280;55906;52.278;6.808;2023-05-20T03:24:40;102273.81;;;12.51;63.92
68871;BME280;55906;52.278;6.808;2023-05-20T03:27:08;102271.88;;;12.47;64.15
68871;BME280;55906;52.278;6.808;2023-05-20T03:29:35;102275.28;;;12.44;64.00
68871;BME280;55906;52.278;6.808;2023-05-20T03:32:02;102264.47;;;12.38;63.70
68871;BME280;55906;52.278;6.808;2023-05-20T03:34:29;102271.50;;;12.38;63.92
68871;BME280;55906;52.278;6.808;2023-05-20T03:36:55;102272.28;;;12.35;64.07
68871;BME280;55906;52.278;6.808;2023-05-20T03:39:24;102270.28;;;12.30;65.15
68871;BME280;55906;52.278;6.808;2023-05-20T03:41:52;102259.72;;;12.30;64.49
68871;BME280;55906;52.278;6.808;2023-05-20T03:44:19;102272.78;;;12.27;64.63
68871;BME280;55906;52.278;6.808;2023-05-20T03:46:45;102269.25;;;12.26;65.14
68871;BME280;55906;52.278;6.808;2023-05-20T03:49:12;102276.28;;;12.26;64.83
68871;BME280;55906;52.278;6.808;2023-05-20T03:51:38;102268.34;;;12.26;64.96
68871;BME280;55906;52.278;6.808;2023-05-20T03:54:05;102270.94;;;12.24;65.53
68871;BME280;55906;52.278;6.808;2023-05-20T03:56:32;102271.84;;;12.25;65.45
68871;BME280;55906;52.278;6.808;2023-05-20T03:59:00;102272.59;;;12.22;65.12
68871;BME280;55906;52.278;6.808;2023-05-20T04:01:26;102276.97;;;12.22;65.11
68871;BME280;55906;52.278;6.808;2023-05-20T04:03:53;102276.16;;;12.23;65.34
68871;BME280;55906;52.278;6.808;2023-05-20T04:06:19;102273.50;;;12.23;65.41
68871;BME280;55906;52.278;6.808;2023-05-20T04:08:47;102276.97;;;12.22;65.38
68871;BME280;55906;52.278;6.808;2023-05-20T04:11:13;102278.66;;;12.20;65.32
68871;BME280;55906;52.278;6.808;2023-05-20T04:13:40;102280.53;;;12.22;65.16
68871;BME280;55906;52.278;6.808;2023-05-20T04:16:08;102278.78;;;12.23;65.49
68871;BME280;55906;52.278;6.808;2023-05-20T04:18:35;102287.41;;;12.18;65.99
68871;BME280;55906;52.278;6.808;2023-05-20T04:21:03;102280.59;;;12.24;65.79
68871;BME280;55906;52.278;6.808;2023-05-20T04:23:30;102280.72;;;12.27;65.11
68871;BME280;55906;52.278;6.808;2023-05-20T04:25:57;102286.06;;;12.28;65.30
68871;BME280;55906;52.278;6.808;2023-05-20T04:28:27;102284.31;;;12.29;65.68
68871;BME280;55906;52.278;6.808;2023-05-20T04:30:58;102294.16;;;12.33;66.12
68871;BME280;55906;52.278;6.808;2023-05-20T04:33:28;102290.63;;;12.32;66.69
68871;BME280;55906;52.278;6.808;2023-05-20T04:35:55;102284.50;;;12.33;65.95
68871;BME280;55906;52.278;6.808;2023-05-20T04:38:23;102281.94;;;12.35;65.81
68871;BME280;55906;52.278;6.808;2023-05-20T04:40:54;102286.63;;;12.42;65.38
68871;BME280;55906;52.278;6.808;2023-05-20T04:43:22;102290.34;;;12.47;65.30
68871;BME280;55906;52.278;6.808;2023-05-20T04:45:50;102295.75;;;12.50;65.81
68871;BME280;55906;52.278;6.808;2023-05-20T04:48:17;102290.66;;;12.55;65.29
68871;BME280;55906;52.278;6.808;2023-05-20T04:50:46;102289.03;;;12.58;65.10
68871;BME280;55906;52.278;6.808;2023-05-20T04:53:13;102292.53;;;12.57;66.12
68871;BME280;55906;52.278;6.808;2023-05-20T04:55:40;102290.97;;;12.62;65.66
68871;BME280;55906;52.278;6.808;2023-05-20T04:58:07;102292.00;;;12.66;65.38
68871;BME280;55906;52.278;6.808;2023-05-20T05:00:39;102295.66;;;12.69;65.64
68871;BME280;55906;52.278;6.808;2023-05-20T05:03:06;102295.06;;;12.76;64.91
68871;BME280;55906;52.278;6.808;2023-05-20T05:05:33;102295.06;;;12.76;66.66
68871;BME280;55906;52.278;6.808;2023-05-20T05:08:02;102296.28;;;12.85;65.25
68871;BME280;55906;52.278;6.808;2023-05-20T05:10:29;102291.94;;;12.87;64.69
68871;BME280;55906;52.278;6.808;2023-05-20T05:12:55;102292.06;;;12.90;65.52
68871;BME280;55906;52.278;6.808;2023-05-20T05:15:22;102288.69;;;12.94;65.12
68871;BME280;55906;52.278;6.808;2023-05-20T05:17:49;102283.94;;;13.06;64.33
68871;BME280;55906;52.278;6.808;2023-05-20T05:20:16;102285.19;;;13.16;63.87
68871;BME280;55906;52.278;6.808;2023-05-20T05:22:43;102289.06;;;13.24;64.37
68871;BME280;55906;52.278;6.808;2023-05-20T05:25:11;102287.53;;;13.30;63.28
68871;BME280;55906;52.278;6.808;2023-05-20T05:27:38;102280.63;;;13.34;63.21
68871;BME280;55906;52.278;6.808;2023-05-20T05:30:06;102278.38;;;13.44;63.38
68871;BME280;55906;52.278;6.808;2023-05-20T05:32:33;102283.88;;;13.51;63.15
68871;BME280;55906;52.278;6.808;2023-05-20T05:35:00;102289.44;;;13.58;62.55
68871;BME280;55906;52.278;6.808;2023-05-20T05:37:26;102289.84;;;13.69;62.39
68871;BME280;55906;52.278;6.808;2023-05-20T05:39:53;102282.88;;;13.71;62.21
68871;BME280;55906;52.278;6.808;2023-05-20T05:42:21;102278.75;;;13.79;61.76
68871;BME280;55906;52.278;6.808;2023-05-20T05:44:48;102271.66;;;13.78;61.64
68871;BME280;55906;52.278;6.808;2023-05-20T05:47:16;102271.03;;;13.85;61.79
68871;BME280;55906;52.278;6.808;2023-05-20T05:49:42;102276.63;;;13.94;61.23
68871;BME280;55906;52.278;6.808;2023-05-20T05:52:09;102276.78;;;13.99;61.02
68871;BME280;55906;52.278;6.808;2023-05-20T05:54:36;102276.47;;;14.15;60.68
68871;BME280;55906;52.278;6.808;2023-05-20T05:57:03;102274.97;;;14.23;60.27
68871;BME280;55906;52.278;6.808;2023-05-20T05:59:31;102276.16;;;14.31;59.95
68871;BME280;55906;52.278;6.808;2023-05-20T06:01:57;102280.72;;;14.35;60.07
68871;BME280;55906;52.278;6.808;2023-05-20T06:04:24;102279.50;;;14.51;59.63
68871;BME280;55906;52.278;6.808;2023-05-20T06:06:51;102278.94;;;14.61;59.37
68871;BME280;55906;52.278;6.808;2023-05-20T06:09:17;102287.28;;;14.73;59.07
68871;BME280;55906;52.278;6.808;2023-05-20T06:11:44;102278.81;;;14.85;58.20
68871;BME280;55906;52.278;6.808;2023-05-20T06:14:10;102277.13;;;14.87;58.22
68871;BME280;55906;52.278;6.808;2023-05-20T06:16:38;102277.03;;;14.84;57.98
68871;BME280;55906;52.278;6.808;2023-05-20T06:19:05;102276.50;;;14.96;57.82
68871;BME280;55906;52.278;6.808;2023-05-20T06:21:33;102279.53;;;15.08;57.66
68871;BME280;55906;52.278;6.808;2023-05-20T06:24:00;102275.25;;;15.13;57.45
68871;BME280;55906;52.278;6.808;2023-05-20T06:26:27;102272.91;;;15.24;57.02
68871;BME280;55906;52.278;6.808;2023-05-20T06:28:54;102272.34;;;15.34;56.50
68871;BME280;55906;52.278;6.808;2023-05-20T06:31:20;102268.06;;;15.39;56.65
68871;BME280;55906;52.278;6.808;2023-05-20T06:33:49;102258.34;;;15.40;56.46
68871;BME280;55906;52.278;6.808;2023-05-20T06:36:16;102261.25;;;15.49;56.13
68871;BME280;55906;52.278;6.808;2023-05-20T06:38:42;102264.09;;;15.55;55.71
68871;BME280;55906;52.278;6.808;2023-05-20T06:41:09;102257.31;;;15.63;55.54
68871;BME280;55906;52.278;6.808;2023-05-20T06:43:36;102266.41;;;15.73;55.39
68871;BME280;55906;52.278;6.808;2023-05-20T06:46:02;102266.78;;;15.86;55.32
68871;BME280;55906;52.278;6.808;2023-05-20T06:48:29;102262.75;;;16.00;54.87
68871;BME280;55906;52.278;6.808;2023-05-20T06:50:57;102256.91;;;16.15;54.60
68871;BME280;55906;52.278;6.808;2023-05-20T06:53:24;102251.75;;;16.21;54.27
68871;BME280;55906;52.278;6.808;2023-05-20T06:55:52;102241.66;;;16.43;54.01
68871;BME280;55906;52.278;6.808;2023-05-20T06:58:19;102244.72;;;16.59;53.70
68871;BME280;55906;52.278;6.808;2023-05-20T07:00:46;102235.19;;;16.68;53.42
68871;BME280;55906;52.278;6.808;2023-05-20T07:03:13;102243.34;;;16.75;53.21
68871;BME280;55906;52.278;6.808;2023-05-20T07:05:39;102230.44;;;16.90;52.97
68871;BME280;55906;52.278;6.808;2023-05-20T07:08:07;102236.13;;;17.09;52.23
68871;BME280;55906;52.278;6.808;2023-05-20T07:10:34;102232.91;;;17.23;52.28
68871;BME280;55906;52.278;6.808;2023-05-20T07:13:01;102232.00;;;17.23;51.78
68871;BME280;55906;52.278;6.808;2023-05-20T07:15:28;102233.94;;;17.32;51.54
68871;BME280;55906;52.278;6.808;2023-05-20T07:17:54;102235.16;;;17.47;51.10
68871;BME280;55906;52.278;6.808;2023-05-20T07:20:21;102237.34;;;17.68;50.90
68871;BME280;55906;52.278;6.808;2023-05-20T07:22:48;102235.75;;;17.78;50.71
68871;BME280;55906;52.278;6.808;2023-05-20T07:25:17;102234.22;;;17.90;50.39
68871;BME280;55906;52.278;6.808;2023-05-20T07:27:43;102231.56;;;17.90;50.19
68871;BME280;55906;52.278;6.808;2023-05-20T07:30:10;102230.09;;;18.09;50.25
68871;BME280;55906;52.278;6.808;2023-05-20T07:32:37;102233.78;;;18.17;49.53
68871;BME280;55906;52.278;6.808;2023-05-20T07:35:04;102225.78;;;18.16;49.39
68871;BME280;55906;52.278;6.808;2023-05-20T07:37:31;102222.38;;;18.23;49.23
68871;BME280;55906;52.278;6.808;2023-05-20T07:39:57;102222.50;;;18.31;48.92
68871;BME280;55906;52.278;6.808;2023-05-20T07:42:25;102219.06;;;18.39;48.35
68871;BME280;55906;52.278;6.808;2023-05-20T07:44:52;102226.16;;;18.37;48.51
68871;BME280;55906;52.278;6.808;2023-05-20T07:47:19;102219.84;;;18.32;48.19
68871;BME280;55906;52.278;6.808;2023-05-20T07:49:46;102211.94;;;18.38;47.59
68871;BME280;55906;52.278;6.808;2023-05-20T07:52:12;102211.41;;;18.61;47.44
68871;BME280;55906;52.278;6.808;2023-05-20T07:54:40;102195.59;;;18.71;47.28
68871;BME280;55906;52.278;6.808;2023-05-20T07:57:06;102190.91;;;18.57;46.66
68871;BME280;55906;52.278;6.808;2023-05-20T07:59:34;102209.13;;;18.86;46.80
68871;BME280;55906;52.278;6.808;2023-05-20T08:02:01;102203.19;;;19.09;46.47
68871;BME280;55906;52.278;6.808;2023-05-20T08:04:28;102207.00;;;19.29;46.04
68871;BME280;55906;52.278;6.808;2023-05-20T08:06:54;102207.97;;;19.37;46.17
68871;BME280;55906;52.278;6.808;2023-05-20T08:09:21;102206.06;;;19.26;44.83
68871;BME280;55906;52.278;6.808;2023-05-20T08:11:48;102208.81;;;19.33;44.61
68871;BME280;55906;52.278;6.808;2023-05-20T08:14:15;102202.59;;;19.34;44.08
68871;BME280;55906;52.278;6.808;2023-05-20T08:16:43;102191.13;;;19.43;43.12
68871;BME280;55906;52.278;6.808;2023-05-20T08:19:09;102199.25;;;19.50;43.59
68871;BME280;55906;52.278;6.808;2023-05-20T08:21:36;102195.78;;;19.56;43.25
68871;BME280;55906;52.278;6.808;2023-05-20T08:24:04;102193.31;;;19.77;42.73
68871;BME280;55906;52.278;6.808;2023-05-20T08:26:31;102204.81;;;19.70;42.54
68871;BME280;55906;52.278;6.808;2023-05-20T08:28:58;102193.13;;;19.56;42.06
68871;BME280;55906;52.278;6.808;2023-05-20T08:31:24;102189.72;;;19.72;42.17
68871;BME280;55906;52.278;6.808;2023-05-20T08:33:52;102192.28;;;19.62;41.85
68871;BME280;55906;52.278;6.808;2023-05-20T08:36:19;102188.16;;;19.97;42.31
68871;BME280;55906;52.278;6.808;2023-05-20T08:38:46;102190.81;;;19.94;41.49
68871;BME280;55906;52.278;6.808;2023-05-20T08:41:13;102196.22;;;20.05;41.88
68871;BME280;55906;52.278;6.808;2023-05-20T08:43:39;102191.91;;;20.21;41.64
68871;BME280;55906;52.278;6.808;2023-05-20T08:46:06;102187.72;;;20.55;41.15
68871;BME280;55906;52.278;6.808;2023-05-20T08:48:34;102196.66;;;20.60;40.58
68871;BME280;55906;52.278;6.808;2023-05-20T08:51:08;102192.16;;;20.56;39.56
68871;BME280;55906;52.278;6.808;2023-05-20T08:53:35;102178.06;;;20.81;39.12
68871;BME280;55906;52.278;6.808;2023-05-20T08:56:02;102181.88;;;21.32;38.60
68871;BME280;55906;52.278;6.808;2023-05-20T08:58:29;102173.00;;;21.68;37.99
68871;BME280;55906;52.278;6.808;2023-05-20T09:00:56;102163.19;;;22.02;36.31
68871;BME280;55906;52.278;6.808;2023-05-20T09:03:23;102164.13;;;22.13;36.24
68871;BME280;55906;52.278;6.808;2023-05-20T09:05:50;102172.09;;;22.54;37.23
68871;BME280;55906;52.278;6.808;2023-05-20T09:08:22;102161.97;;;23.28;35.11
68871;BME280;55906;52.278;6.808;2023-05-20T09:10:51;102162.44;;;23.94;35.46
68871;BME280;55906;52.278;6.808;2023-05-20T09:13:17;102159.47;;;24.26;35.71
68871;BME280;55906;52.278;6.808;2023-05-20T09:15:44;102162.03;;;24.40;34.77
68871;BME280;55906;52.278;6.808;2023-05-20T09:18:11;102161.91;;;24.52;34.44
68871;BME280;55906;52.278;6.808;2023-05-20T09:20:38;102160.06;;;24.57;33.56
68871;BME280;55906;52.278;6.808;2023-05-20T09:23:07;102159.47;;;24.28;31.72
68871;BME280;55906;52.278;6.808;2023-05-20T09:25:35;102159.25;;;25.24;31.98
68871;BME280;55906;52.278;6.808;2023-05-20T09:28:03;102154.13;;;25.67;31.67
68871;BME280;55906;52.278;6.808;2023-05-20T09:30:31;102152.06;;;25.83;31.22
68871;BME280;55906;52.278;6.808;2023-05-20T09:32:59;102143.94;;;25.86;30.27
68871;BME280;55906;52.278;6.808;2023-05-20T09:35:26;102140.25;;;25.90;29.70
68871;BME280;55906;52.278;6.808;2023-05-20T09:37:54;102143.19;;;25.76;29.34
68871;BME280;55906;52.278;6.808;2023-05-20T09:40:23;102143.66;;;26.04;29.26
68871;BME280;55906;52.278;6.808;2023-05-20T09:42:55;102139.25;;;26.48;29.62
68871;BME280;55906;52.278;6.808;2023-05-20T09:45:22;102138.28;;;26.00;29.40
68871;BME280;55906;52.278;6.808;2023-05-20T09:47:49;102144.25;;;25.68;30.44
68871;BME280;55906;52.278;6.808;2023-05-20T09:50:18;102145.91;;;25.75;29.95
68871;BME280;55906;52.278;6.808;2023-05-20T09:52:47;102142.94;;;25.33;29.43
68871;BME280;55906;52.278;6.808;2023-05-20T09:55:14;102141.50;;;25.09;29.93
68871;BME280;55906;52.278;6.808;2023-05-20T09:57:41;102149.03;;;24.81;30.91
68871;BME280;55906;52.278;6.808;2023-05-20T10:00:10;102140.94;;;24.81;31.21
68871;BME280;55906;52.278;6.808;2023-05-20T10:02:42;102123.53;;;25.10;30.29
68871;BME280;55906;52.278;6.808;2023-05-20T10:05:13;102121.44;;;24.60;31.42
68871;BME280;55906;52.278;6.808;2023-05-20T10:10:49;102113.69;;;25.67;30.07
68871;BME280;55906;52.278;6.808;2023-05-20T10:13:32;102123.00;;;26.00;29.61
68871;BME280;55906;52.278;6.808;2023-05-20T10:16:08;102117.56;;;26.05;29.73
68871;BME280;55906;52.278;6.808;2023-05-20T10:18:48;102117.78;;;26.42;29.36
68871;BME280;55906;52.278;6.808;2023-05-20T10:21:20;102111.22;;;26.97;29.13
68871;BME280;55906;52.278;6.808;2023-05-20T10:23:48;102113.22;;;26.87;28.73
68871;BME280;55906;52.278;6.808;2023-05-20T10:26:15;102107.53;;;27.01;29.02
68871;BME280;55906;52.278;6.808;2023-05-20T10:28:42;102090.75;;;27.25;28.30
68871;BME280;55906;52.278;6.808;2023-05-20T10:31:19;102105.22;;;27.63;27.18
68871;BME280;55906;52.278;6.808;2023-05-20T10:33:46;102087.34;;;27.91;27.48
68871;BME280;55906;52.278;6.808;2023-05-20T10:36:24;102083.63;;;28.29;26.76
68871;BME280;55906;52.278;6.808;2023-05-20T10:38:53;102086.28;;;28.31;26.89
68871;BME280;55906;52.278;6.808;2023-05-20T10:41:22;102071.59;;;26.96;27.87
68871;BME280;55906;52.278;6.808;2023-05-20T10:43:58;102085.97;;;26.99;27.13
68871;BME280;55906;52.278;6.808;2023-05-20T10:46:27;102088.97;;;27.24;27.38
68871;BME280;55906;52.278;6.808;2023-05-20T10:48:54;102081.03;;;27.91;26.56
68871;BME280;55906;52.278;6.808;2023-05-20T10:51:21;102075.56;;;27.94;26.53
68871;BME280;55906;52.278;6.808;2023-05-20T10:53:51;102080.13;;;27.92;26.42
68871;BME280;55906;52.278;6.808;2023-05-20T10:56:20;102069.09;;;27.65;26.50
68871;BME280;55906;52.278;6.808;2023-05-20T10:58:47;102071.03;;;28.58;26.54
68871;BME280;55906;52.278;6.808;2023-05-20T11:01:14;102071.53;;;28.41;25.68
68871;BME280;55906;52.278;6.808;2023-05-20T11:03:44;102057.31;;;29.23;26.00
68871;BME280;55906;52.278;6.808;2023-05-20T11:06:12;102057.66;;;29.12;25.87
68871;BME280;55906;52.278;6.808;2023-05-20T11:08:39;102068.78;;;29.59;25.78
68871;BME280;55906;52.278;6.808;2023-05-20T11:11:06;102053.78;;;29.21;25.24
68871;BME280;55906;52.278;6.808;2023-05-20T11:13:33;102051.78;;;29.54;25.46
68871;BME280;55906;52.278;6.808;2023-05-20T11:16:00;102056.31;;;29.53;24.85
68871;BME280;55906;52.278;6.808;2023-05-20T11:18:29;102052.16;;;29.15;25.73
68871;BME280;55906;52.278;6.808;2023-05-20T11:20:58;102047.13;;;28.74;25.65
68871;BME280;55906;52.278;6.808;2023-05-20T11:23:26;102048.13;;;29.27;25.35
68871;BME280;55906;52.278;6.808;2023-05-20T11:25:54;102040.41;;;29.69;25.37
68871;BME280;55906;52.278;6.808;2023-05-20T11:28:21;102038.97;;;29.84;24.82
68871;BME280;55906;52.278;6.808;2023-05-20T11:30:49;102036.69;;;30.23;24.43
68871;BME280;55906;52.278;6.808;2023-05-20T11:33:17;102031.50;;;30.40;24.25
68871;BME280;55906;52.278;6.808;2023-05-20T11:35:45;102031.88;;;30.78;24.17
68871;BME280;55906;52.278;6.808;2023-05-20T11:38:13;102021.81;;;30.56;23.29
68871;BME280;55906;52.278;6.808;2023-05-20T11:40:42;102030.44;;;30.91;23.18
68871;BME280;55906;52.278;6.808;2023-05-20T11:43:11;102012.53;;;31.07;23.34
68871;BME280;55906;52.278;6.808;2023-05-20T11:45:39;102027.75;;;30.68;22.96
68871;BME280;55906;52.278;6.808;2023-05-20T11:48:06;102017.72;;;30.21;23.67
68871;BME280;55906;52.278;6.808;2023-05-20T11:50:34;102025.41;;;30.10;24.41
68871;BME280;55906;52.278;6.808;2023-05-20T11:53:04;102018.84;;;29.91;23.45
68871;BME280;55906;52.278;6.808;2023-05-20T11:55:33;102024.69;;;29.79;24.39
68871;BME280;55906;52.278;6.808;2023-05-20T11:58:02;102019.81;;;29.36;23.98
68871;BME280;55906;52.278;6.808;2023-05-20T12:00:29;102004.88;;;28.96;24.16
68871;BME280;55906;52.278;6.808;2023-05-20T12:02:55;102007.75;;;29.97;23.47
68871;BME280;55906;52.278;6.808;2023-05-20T12:05:22;101989.00;;;30.84;23.16
68871;BME280;55906;52.278;6.808;2023-05-20T12:07:48;102009.41;;;30.26;23.46
68871;BME280;55906;52.278;6.808;2023-05-20T12:10:15;101997.34;;;30.56;23.67
68871;BME280;55906;52.278;6.808;2023-05-20T12:12:43;102002.81;;;30.33;23.71
68871;BME280;55906;52.278;6.808;2023-05-20T12:15:10;102002.63;;;30.38;23.78
68871;BME280;55906;52.278;6.808;2023-05-20T12:17:45;101993.88;;;30.98;22.49
68871;BME280;55906;52.278;6.808;2023-05-20T12:20:14;101997.09;;;30.86;22.76
68871;BME280;55906;52.278;6.808;2023-05-20T12:22:41;102002.66;;;31.28;22.35
68871;BME280;55906;52.278;6.808;2023-05-20T12:25:10;101985.88;;;31.17;22.42
68871;BME280;55906;52.278;6.808;2023-05-20T12:27:37;101991.88;;;31.67;22.12
68871;BME280;55906;52.278;6.808;2023-05-20T12:30:06;101995.91;;;30.93;21.88
68871;BME280;55906;52.278;6.808;2023-05-20T12:32:34;101975.59;;;30.80;22.62
68871;BME280;55906;52.278;6.808;2023-05-20T12:35:00;101973.16;;;30.96;23.02
68871;BME280;55906;52.278;6.808;2023-05-20T12:37:27;101977.25;;;31.49;22.12
68871;BME280;55906;52.278;6.808;2023-05-20T12:39:54;101971.25;;;31.19;21.71
68871;BME280;55906;52.278;6.808;2023-05-20T12:42:20;101962.53;;;31.33;22.25
68871;BME280;55906;52.278;6.808;2023-05-20T12:44:47;101966.63;;;31.43;22.20
68871;BME280;55906;52.278;6.808;2023-05-20T12:47:15;101963.28;;;30.93;22.82
68871;BME280;55906;52.278;6.808;2023-05-20T12:49:42;101964.13;;;31.79;22.04
68871;BME280;55906;52.278;6.808;2023-05-20T12:52:08;101968.56;;;31.82;22.04
68871;BME280;55906;52.278;6.808;2023-05-20T12:54:35;101960.19;;;32.44;21.44